sensor_id;sensor_type;location;lat;lon;timestamp;P1;durP1;ratioP1;P2;durP2;ratioP2
6149;SDS011;3106;42.670;23.318;2023-01-01T00:01:22;433.13;;;188.97;;
6149;SDS011;3106;42.670;23.318;2023-01-01T00:03:49;434.03;;;183.60;;
6149;SDS011;3106;42.670;23.318;2023-01-01T00:06:16;427.47;;;176.63;;
6149;SDS011;3106;42.670;23.318;2023-01-01T00:08:43;416.37;;;174.20;;
6149;SDS011;3106;42.670;23.318;2023-01-01T00:11:12;411.57;;;175.87;;
6149;SDS011;3106;42.670;23.318;2023-01-01T00:13:41;435.87;;;172.30;;
6149;SDS011;3106;42.670;23.318;2023-01-01T00:16:09;422.10;;;181.37;;
6149;SDS011;3106;42.670;23.318;2023-01-01T00:18:40;428.97;;;179.67;;
6149;SDS011;3106;42.670;23.318;2023-01-01T00:21:09;425.70;;;175.37;;
6149;SDS011;3106;42.670;23.318;2023-01-01T00:23:41;431.03;;;171.73;;
6149;SDS011;3106;42.670;23.318;2023-01-01T00:26:08;428.13;;;173.37;;
6149;SDS011;3106;42.670;23.318;2023-01-01T00:28:36;428.73;;;182.00;;
6149;SDS011;3106;42.670;23.318;2023-01-01T00:31:04;430.40;;;182.93;;
6149;SDS011;3106;42.670;23.318;2023-01-01T00:33:32;437.87;;;182.40;;
6149;SDS011;3106;42.670;23.318;2023-01-01T00:36:05;427.73;;;181.63;;
6149;SDS011;3106;42.670;23.318;2023-01-01T00:38:34;444.73;;;191.63;;
6149;SDS011;3106;42.670;23.318;2023-01-01T00:41:04;425.13;;;177.50;;
6149;SDS011;3106;42.670;23.318;2023-01-01T00:43:31;420.63;;;178.10;;
6149;SDS011;3106;42.670;23.318;2023-01-01T00:46:01;410.13;;;180.40;;
6149;SDS011;3106;42.670;23.318;2023-01-01T00:48:29;441.47;;;182.30;;
6149;SDS011;3106;42.670;23.318;2023-01-01T00:50:56;417.17;;;181.10;;
6149;SDS011;3106;42.670;23.318;2023-01-01T00:53:29;448.03;;;178.27;;
6149;SDS011;3106;42.670;23.318;2023-01-01T00:55:56;425.70;;;183.80;;
6149;SDS011;3106;42.670;23.318;2023-01-01T00:58:23;424.70;;;181.47;;
6149;SDS011;3106;42.670;23.318;2023-01-01T01:00:56;427.23;;;183.90;;
6149;SDS011;3106;42.670;23.318;2023-01-01T01:03:27;424.90;;;179.30;;
6149;SDS011;3106;42.670;23.318;2023-01-01T01:05:54;424.33;;;180.67;;
6149;SDS011;3106;42.670;23.318;2023-01-01T01:08:26;448.10;;;188.47;;
6149;SDS011;3106;42.670;23.318;2023-01-01T01:11:02;439.83;;;182.87;;
6149;SDS011;3106;42.670;23.318;2023-01-01T01:13:30;424.47;;;180.23;;
6149;SDS011;3106;42.670;23.318;2023-01-01T01:15:57;441.73;;;184.13;;
6149;SDS011;3106;42.670;23.318;2023-01-01T01:18:25;431.27;;;183.87;;
6149;SDS011;3106;42.670;23.318;2023-01-01T01:20:52;434.40;;;183.90;;
6149;SDS011;3106;42.670;23.318;2023-01-01T01:23:20;441.10;;;185.57;;
6149;SDS011;3106;42.670;23.318;2023-01-01T01:25:47;445.60;;;182.93;;
6149;SDS011;3106;42.670;23.318;2023-01-01T01:28:15;454.97;;;200.60;;
6149;SDS011;3106;42.670;23.318;2023-01-01T01:30:42;486.00;;;205.57;;
6149;SDS011;3106;42.670;23.318;2023-01-01T01:33:09;450.23;;;186.90;;
6149;SDS011;3106;42.670;23.318;2023-01-01T01:35:37;440.47;;;179.90;;
6149;SDS011;3106;42.670;23.318;2023-01-01T01:38:13;450.07;;;190.40;;
6149;SDS011;3106;42.670;23.318;2023-01-01T01:40:41;455.70;;;198.73;;
6149;SDS011;3106;42.670;23.318;2023-01-01T01:43:10;432.37;;;190.97;;
6149;SDS011;3106;42.670;23.318;2023-01-01T01:45:46;464.13;;;200.47;;
6149;SDS011;3106;42.670;23.318;2023-01-01T01:48:14;459.57;;;198.93;;
6149;SDS011;3106;42.670;23.318;2023-01-01T01:50:45;469.13;;;210.07;;
6149;SDS011;3106;42.670;23.318;2023-01-01T01:53:18;463.23;;;209.43;;
6149;SDS011;3106;42.670;23.318;2023-01-01T01:58:24;457.47;;;194.47;;
6149;SDS011;3106;42.670;23.318;2023-01-01T02:00:54;471.07;;;207.07;;
6149;SDS011;3106;42.670;23.318;2023-01-01T02:03:21;490.43;;;215.10;;
6149;SDS011;3106;42.670;23.318;2023-01-01T02:05:52;460.23;;;199.53;;
6149;SDS011;3106;42.670;23.318;2023-01-01T02:08:20;457.47;;;193.10;;
6149;SDS011;3106;42.670;23.318;2023-01-01T02:10:47;479.77;;;203.07;;
6149;SDS011;3106;42.670;23.318;2023-01-01T02:13:14;462.83;;;199.67;;
6149;SDS011;3106;42.670;23.318;2023-01-01T02:15:43;473.53;;;204.97;;
6149;SDS011;3106;42.670;23.318;2023-01-01T02:18:19;471.57;;;208.07;;
6149;SDS011;3106;42.670;23.318;2023-01-01T02:20:51;469.83;;;210.90;;
6149;SDS011;3106;42.670;23.318;2023-01-01T02:23:31;478.47;;;222.80;;
6149;SDS011;3106;42.670;23.318;2023-01-01T02:26:25;475.43;;;217.40;;
6149;SDS011;3106;42.670;23.318;2023-01-01T02:29:06;476.90;;;206.50;;
6149;SDS011;3106;42.670;23.318;2023-01-01T02:31:41;452.00;;;194.00;;
6149;SDS011;3106;42.670;23.318;2023-01-01T02:34:13;463.73;;;200.90;;
6149;SDS011;3106;42.670;23.318;2023-01-01T02:36:44;459.80;;;191.70;;
6149;SDS011;3106;42.670;23.318;2023-01-01T02:39:15;434.93;;;174.20;;
6149;SDS011;3106;42.670;23.318;2023-01-01T02:41:47;423.73;;;175.43;;
6149;SDS011;3106;42.670;23.318;2023-01-01T02:44:18;390.03;;;152.70;;
6149;SDS011;3106;42.670;23.318;2023-01-01T02:46:46;367.73;;;143.03;;
6149;SDS011;3106;42.670;23.318;2023-01-01T02:49:13;357.60;;;145.00;;
6149;SDS011;3106;42.670;23.318;2023-01-01T02:51:41;368.60;;;144.67;;
6149;SDS011;3106;42.670;23.318;2023-01-01T02:54:24;382.63;;;154.13;;
6149;SDS011;3106;42.670;23.318;2023-01-01T02:56:57;387.17;;;148.40;;
6149;SDS011;3106;42.670;23.318;2023-01-01T02:59:32;359.50;;;147.30;;
6149;SDS011;3106;42.670;23.318;2023-01-01T03:02:33;349.33;;;135.83;;
6149;SDS011;3106;42.670;23.318;2023-01-01T03:05:07;380.43;;;147.77;;
6149;SDS011;3106;42.670;23.318;2023-01-01T03:07:40;363.03;;;145.20;;
6149;SDS011;3106;42.670;23.318;2023-01-01T03:10:16;382.67;;;154.17;;
6149;SDS011;3106;42.670;23.318;2023-01-01T03:12:49;403.70;;;163.20;;
6149;SDS011;3106;42.670;23.318;2023-01-01T03:15:23;393.67;;;159.97;;
6149;SDS011;3106;42.670;23.318;2023-01-01T03:17:54;404.40;;;155.40;;
6149;SDS011;3106;42.670;23.318;2023-01-01T03:20:28;420.17;;;166.10;;
6149;SDS011;3106;42.670;23.318;2023-01-01T03:23:00;418.53;;;165.27;;
6149;SDS011;3106;42.670;23.318;2023-01-01T03:25:38;445.17;;;176.13;;
6149;SDS011;3106;42.670;23.318;2023-01-01T03:28:10;474.00;;;196.17;;
6149;SDS011;3106;42.670;23.318;2023-01-01T03:30:41;443.37;;;178.20;;
6149;SDS011;3106;42.670;23.318;2023-01-01T03:33:13;448.20;;;187.50;;
6149;SDS011;3106;42.670;23.318;2023-01-01T03:35:47;445.40;;;192.00;;
6149;SDS011;3106;42.670;23.318;2023-01-01T03:38:18;443.07;;;193.77;;
6149;SDS011;3106;42.670;23.318;2023-01-01T03:40:50;443.40;;;190.23;;
6149;SDS011;3106;42.670;23.318;2023-01-01T03:43:25;433.53;;;177.27;;
6149;SDS011;3106;42.670;23.318;2023-01-01T03:46:02;428.80;;;169.77;;
6149;SDS011;3106;42.670;23.318;2023-01-01T03:48:35;439.97;;;179.33;;
6149;SDS011;3106;42.670;23.318;2023-01-01T03:51:16;433.60;;;161.57;;
6149;SDS011;3106;42.670;23.318;2023-01-01T03:53:51;429.73;;;167.87;;
6149;SDS011;3106;42.670;23.318;2023-01-01T03:56:24;415.60;;;165.60;;
6149;SDS011;3106;42.670;23.318;2023-01-01T03:59:01;423.93;;;168.33;;
6149;SDS011;3106;42.670;23.318;2023-01-01T04:01:36;406.47;;;161.97;;
6149;SDS011;3106;42.670;23.318;2023-01-01T04:04:06;417.50;;;161.80;;
6149;SDS011;3106;42.670;23.318;2023-01-01T04:06:33;422.03;;;160.00;;
6149;SDS011;3106;42.670;23.318;2023-01-01T04:09:00;414.60;;;160.67;;
6149;SDS011;3106;42.670;23.318;2023-01-01T04:11:30;401.90;;;161.77;;
6149;SDS011;3106;42.670;23.318;2023-01-01T04:14:25;413.40;;;159.73;;
6149;SDS011;3106;42.670;23.318;2023-01-01T04:16:57;401.87;;;164.77;;
6149;SDS011;3106;42.670;23.318;2023-01-01T04:19:24;392.40;;;165.77;;
6149;SDS011;3106;42.670;23.318;2023-01-01T04:21:52;418.10;;;167.30;;
6149;SDS011;3106;42.670;23.318;2023-01-01T04:24:19;407.63;;;155.07;;
6149;SDS011;3106;42.670;23.318;2023-01-01T04:26:47;357.63;;;140.80;;
6149;SDS011;3106;42.670;23.318;2023-01-01T04:29:14;347.67;;;139.33;;
6149;SDS011;3106;42.670;23.318;2023-01-01T04:31:42;390.70;;;150.87;;
6149;SDS011;3106;42.670;23.318;2023-01-01T04:34:10;389.33;;;151.20;;
6149;SDS011;3106;42.670;23.318;2023-01-01T04:36:36;387.40;;;149.47;;
6149;SDS011;3106;42.670;23.318;2023-01-01T04:39:04;415.63;;;162.43;;
6149;SDS011;3106;42.670;23.318;2023-01-01T04:41:31;422.67;;;162.90;;
6149;SDS011;3106;42.670;23.318;2023-01-01T04:43:58;397.60;;;161.03;;
6149;SDS011;3106;42.670;23.318;2023-01-01T04:46:25;406.60;;;152.57;;
6149;SDS011;3106;42.670;23.318;2023-01-01T04:48:52;395.20;;;157.33;;
6149;SDS011;3106;42.670;23.318;2023-01-01T04:51:20;384.53;;;151.43;;
6149;SDS011;3106;42.670;23.318;2023-01-01T04:53:47;412.23;;;159.07;;
6149;SDS011;3106;42.670;23.318;2023-01-01T04:56:15;396.93;;;154.27;;
6149;SDS011;3106;42.670;23.318;2023-01-01T04:58:43;406.73;;;149.57;;
6149;SDS011;3106;42.670;23.318;2023-01-01T05:01:14;360.87;;;146.87;;
6149;SDS011;3106;42.670;23.318;2023-01-01T05:03:43;371.23;;;147.07;;
6149;SDS011;3106;42.670;23.318;2023-01-01T05:06:10;374.70;;;145.23;;
6149;SDS011;3106;42.670;23.318;2023-01-01T05:08:40;360.77;;;141.50;;
6149;SDS011;3106;42.670;23.318;2023-01-01T05:11:10;388.00;;;150.10;;
6149;SDS011;3106;42.670;23.318;2023-01-01T05:13:39;371.03;;;144.17;;
6149;SDS011;3106;42.670;23.318;2023-01-01T05:16:07;364.40;;;142.27;;
6149;SDS011;3106;42.670;23.318;2023-01-01T05:18:35;397.50;;;150.30;;
6149;SDS011;3106;42.670;23.318;2023-01-01T05:21:04;381.50;;;152.23;;
6149;SDS011;3106;42.670;23.318;2023-01-01T05:23:32;397.27;;;150.60;;
6149;SDS011;3106;42.670;23.318;2023-01-01T05:26:06;397.93;;;147.60;;
6149;SDS011;3106;42.670;23.318;2023-01-01T05:28:35;375.33;;;149.27;;
6149;SDS011;3106;42.670;23.318;2023-01-01T05:31:03;366.33;;;148.93;;
6149;SDS011;3106;42.670;23.318;2023-01-01T05:33:31;394.50;;;154.07;;
6149;SDS011;3106;42.670;23.318;2023-01-01T05:35:58;396.87;;;152.30;;
6149;SDS011;3106;42.670;23.318;2023-01-01T05:38:25;399.23;;;157.80;;
6149;SDS011;3106;42.670;23.318;2023-01-01T05:40:52;405.40;;;155.53;;
6149;SDS011;3106;42.670;23.318;2023-01-01T05:43:23;399.57;;;154.00;;
6149;SDS011;3106;42.670;23.318;2023-01-01T05:45:58;347.97;;;137.30;;
6149;SDS011;3106;42.670;23.318;2023-01-01T05:48:25;371.40;;;141.13;;
6149;SDS011;3106;42.670;23.318;2023-01-01T05:50:52;330.17;;;129.70;;
6149;SDS011;3106;42.670;23.318;2023-01-01T05:53:19;245.67;;;97.27;;
6149;SDS011;3106;42.670;23.318;2023-01-01T05:55:51;269.17;;;106.57;;
6149;SDS011;3106;42.670;23.318;2023-01-01T05:58:18;338.97;;;128.40;;
6149;SDS011;3106;42.670;23.318;2023-01-01T06:00:46;312.97;;;125.10;;
6149;SDS011;3106;42.670;23.318;2023-01-01T06:03:13;304.20;;;118.47;;
6149;SDS011;3106;42.670;23.318;2023-01-01T06:05:41;287.30;;;113.57;;
6149;SDS011;3106;42.670;23.318;2023-01-01T06:08:07;321.80;;;124.10;;
6149;SDS011;3106;42.670;23.318;2023-01-01T06:10:34;319.57;;;126.17;;
6149;SDS011;3106;42.670;23.318;2023-01-01T06:13:04;318.93;;;123.70;;
6149;SDS011;3106;42.670;23.318;2023-01-01T06:15:34;284.67;;;106.93;;
6149;SDS011;3106;42.670;23.318;2023-01-01T06:18:02;279.67;;;109.80;;
6149;SDS011;3106;42.670;23.318;2023-01-01T06:20:29;287.27;;;114.37;;
6149;SDS011;3106;42.670;23.318;2023-01-01T06:22:56;276.27;;;112.03;;
6149;SDS011;3106;42.670;23.318;2023-01-01T06:25:25;298.00;;;108.40;;
6149;SDS011;3106;42.670;23.318;2023-01-01T06:27:52;254.13;;;104.10;;
6149;SDS011;3106;42.670;23.318;2023-01-01T06:30:18;327.77;;;121.10;;
6149;SDS011;3106;42.670;23.318;2023-01-01T06:32:47;303.97;;;119.50;;
6149;SDS011;3106;42.670;23.318;2023-01-01T06:35:15;301.10;;;119.73;;
6149;SDS011;3106;42.670;23.318;2023-01-01T06:37:42;329.17;;;125.63;;
6149;SDS011;3106;42.670;23.318;2023-01-01T06:40:09;333.33;;;131.40;;
6149;SDS011;3106;42.670;23.318;2023-01-01T06:42:36;340.00;;;135.33;;
6149;SDS011;3106;42.670;23.318;2023-01-01T06:45:04;305.53;;;122.63;;
6149;SDS011;3106;42.670;23.318;2023-01-01T06:47:32;327.97;;;126.57;;
6149;SDS011;3106;42.670;23.318;2023-01-01T06:50:02;336.03;;;129.97;;
6149;SDS011;3106;42.670;23.318;2023-01-01T06:52:31;330.87;;;130.70;;
6149;SDS011;3106;42.670;23.318;2023-01-01T06:54:58;330.40;;;130.33;;
6149;SDS011;3106;42.670;23.318;2023-01-01T06:57:24;326.00;;;129.73;;
6149;SDS011;3106;42.670;23.318;2023-01-01T06:59:51;327.33;;;129.03;;
6149;SDS011;3106;42.670;23.318;2023-01-01T07:02:18;335.97;;;130.20;;
6149;SDS011;3106;42.670;23.318;2023-01-01T07:04:48;312.90;;;124.60;;
6149;SDS011;3106;42.670;23.318;2023-01-01T07:07:15;316.93;;;128.87;;
6149;SDS011;3106;42.670;23.318;2023-01-01T07:09:43;336.57;;;131.07;;
6149;SDS011;3106;42.670;23.318;2023-01-01T07:12:17;311.73;;;126.17;;
6149;SDS011;3106;42.670;23.318;2023-01-01T07:14:44;305.47;;;125.33;;
6149;SDS011;3106;42.670;23.318;2023-01-01T07:17:11;307.60;;;124.90;;
6149;SDS011;3106;42.670;23.318;2023-01-01T07:19:37;318.13;;;126.87;;
6149;SDS011;3106;42.670;23.318;2023-01-01T07:22:04;327.07;;;133.20;;
6149;SDS011;3106;42.670;23.318;2023-01-01T07:24:31;300.33;;;126.50;;
6149;SDS011;3106;42.670;23.318;2023-01-01T07:27:00;311.07;;;126.00;;
6149;SDS011;3106;42.670;23.318;2023-01-01T07:29:27;306.90;;;124.73;;
6149;SDS011;3106;42.670;23.318;2023-01-01T07:31:54;300.13;;;124.30;;
6149;SDS011;3106;42.670;23.318;2023-01-01T07:34:25;278.80;;;119.37;;
6149;SDS011;3106;42.670;23.318;2023-01-01T07:36:57;308.47;;;123.17;;
6149;SDS011;3106;42.670;23.318;2023-01-01T07:39:24;298.37;;;122.70;;
6149;SDS011;3106;42.670;23.318;2023-01-01T07:41:51;290.00;;;119.37;;
6149;SDS011;3106;42.670;23.318;2023-01-01T07:44:19;275.37;;;119.27;;
6149;SDS011;3106;42.670;23.318;2023-01-01T07:46:52;295.07;;;116.57;;
6149;SDS011;3106;42.670;23.318;2023-01-01T07:49:27;281.97;;;110.97;;
6149;SDS011;3106;42.670;23.318;2023-01-01T07:51:53;282.03;;;119.47;;
6149;SDS011;3106;42.670;23.318;2023-01-01T07:54:21;266.77;;;113.47;;
6149;SDS011;3106;42.670;23.318;2023-01-01T07:56:50;278.00;;;117.77;;
6149;SDS011;3106;42.670;23.318;2023-01-01T07:59:18;293.80;;;120.17;;
6149;SDS011;3106;42.670;23.318;2023-01-01T08:01:51;290.30;;;123.07;;
6149;SDS011;3106;42.670;23.318;2023-01-01T08:04:18;291.07;;;118.60;;
6149;SDS011;3106;42.670;23.318;2023-01-01T08:06:48;272.53;;;114.93;;
6149;SDS011;3106;42.670;23.318;2023-01-01T08:09:15;288.63;;;117.80;;
6149;SDS011;3106;42.670;23.318;2023-01-01T08:11:42;279.73;;;114.53;;
6149;SDS011;3106;42.670;23.318;2023-01-01T08:14:09;265.90;;;109.40;;
6149;SDS011;3106;42.670;23.318;2023-01-01T08:16:37;266.50;;;110.43;;
6149;SDS011;3106;42.670;23.318;2023-01-01T08:19:04;260.50;;;114.17;;
6149;SDS011;3106;42.670;23.318;2023-01-01T08:21:37;253.67;;;110.97;;
6149;SDS011;3106;42.670;23.318;2023-01-01T08:24:04;255.77;;;108.87;;
6149;SDS011;3106;42.670;23.318;2023-01-01T08:26:32;251.63;;;111.67;;
6149;SDS011;3106;42.670;23.318;2023-01-01T08:29:00;260.40;;;109.47;;
6149;SDS011;3106;42.670;23.318;2023-01-01T08:31:29;251.03;;;108.73;;
6149;SDS011;3106;42.670;23.318;2023-01-01T08:33:59;254.47;;;111.90;;
6149;SDS011;3106;42.670;23.318;2023-01-01T08:36:26;264.37;;;112.27;;
6149;SDS011;3106;42.670;23.318;2023-01-01T08:38:52;257.23;;;108.57;;
6149;SDS011;3106;42.670;23.318;2023-01-01T08:41:19;280.70;;;116.00;;
6149;SDS011;3106;42.670;23.318;2023-01-01T08:43:48;267.70;;;116.10;;
6149;SDS011;3106;42.670;23.318;2023-01-01T08:46:22;267.97;;;116.33;;
6149;SDS011;3106;42.670;23.318;2023-01-01T08:48:52;256.87;;;113.37;;
6149;SDS011;3106;42.670;23.318;2023-01-01T08:51:20;271.20;;;117.33;;
6149;SDS011;3106;42.670;23.318;2023-01-01T08:53:49;249.57;;;113.37;;
6149;SDS011;3106;42.670;23.318;2023-01-01T08:56:16;279.47;;;114.90;;
6149;SDS011;3106;42.670;23.318;2023-01-01T08:58:44;257.17;;;112.70;;
6149;SDS011;3106;42.670;23.318;2023-01-01T09:01:11;245.73;;;109.00;;
6149;SDS011;3106;42.670;23.318;2023-01-01T09:03:38;245.90;;;108.43;;
6149;SDS011;3106;42.670;23.318;2023-01-01T09:06:05;237.43;;;101.30;;
6149;SDS011;3106;42.670;23.318;2023-01-01T09:08:34;227.90;;;103.83;;
6149;SDS011;3106;42.670;23.318;2023-01-01T09:11:01;229.17;;;101.40;;
6149;SDS011;3106;42.670;23.318;2023-01-01T09:13:30;239.17;;;101.23;;
6149;SDS011;3106;42.670;23.318;2023-01-01T09:15:58;231.00;;;100.57;;
6149;SDS011;3106;42.670;23.318;2023-01-01T09:39:22;213.03;;;94.17;;
6149;SDS011;3106;42.670;23.318;2023-01-01T09:41:52;211.23;;;92.67;;
6149;SDS011;3106;42.670;23.318;2023-01-01T09:47:22;196.13;;;88.30;;
6149;SDS011;3106;42.670;23.318;2023-01-01T09:49:53;203.70;;;90.50;;
6149;SDS011;3106;42.670;23.318;2023-01-01T09:57:56;186.20;;;86.73;;
6149;SDS011;3106;42.670;23.318;2023-01-01T10:00:26;186.27;;;83.00;;
6149;SDS011;3106;42.670;23.318;2023-01-01T10:03:07;187.30;;;82.83;;
6149;SDS011;3106;42.670;23.318;2023-01-01T10:05:44;187.43;;;83.60;;
6149;SDS011;3106;42.670;23.318;2023-01-01T10:08:25;186.97;;;84.77;;
6149;SDS011;3106;42.670;23.318;2023-01-01T10:11:08;166.63;;;81.30;;
6149;SDS011;3106;42.670;23.318;2023-01-01T10:13:45;161.00;;;77.10;;
6149;SDS011;3106;42.670;23.318;2023-01-01T10:16:14;171.40;;;76.60;;
6149;SDS011;3106;42.670;23.318;2023-01-01T10:18:48;165.97;;;75.83;;
6149;SDS011;3106;42.670;23.318;2023-01-01T10:21:18;166.77;;;76.33;;
6149;SDS011;3106;42.670;23.318;2023-01-01T10:23:53;156.83;;;71.30;;
6149;SDS011;3106;42.670;23.318;2023-01-01T10:26:23;163.17;;;70.17;;
6149;SDS011;3106;42.670;23.318;2023-01-01T10:28:58;156.33;;;71.60;;
6149;SDS011;3106;42.670;23.318;2023-01-01T10:31:30;144.67;;;69.17;;
6149;SDS011;3106;42.670;23.318;2023-01-01T10:34:04;156.30;;;67.47;;
6149;SDS011;3106;42.670;23.318;2023-01-01T10:36:48;143.43;;;68.03;;
6149;SDS011;3106;42.670;23.318;2023-01-01T10:39:17;148.03;;;64.97;;
6149;SDS011;3106;42.670;23.318;2023-01-01T10:41:44;139.87;;;62.73;;
6149;SDS011;3106;42.670;23.318;2023-01-01T10:44:13;131.23;;;60.70;;
6149;SDS011;3106;42.670;23.318;2023-01-01T10:46:46;140.90;;;63.47;;
6149;SDS011;3106;42.670;23.318;2023-01-01T10:49:30;138.97;;;61.10;;
6149;SDS011;3106;42.670;23.318;2023-01-01T10:51:57;134.37;;;63.70;;
6149;SDS011;3106;42.670;23.318;2023-01-01T10:54:31;129.03;;;63.07;;
6149;SDS011;3106;42.670;23.318;2023-01-01T10:57:11;132.40;;;61.50;;
6149;SDS011;3106;42.670;23.318;2023-01-01T10:59:42;132.17;;;60.90;;
6149;SDS011;3106;42.670;23.318;2023-01-01T11:02:14;133.60;;;59.90;;
6149;SDS011;3106;42.670;23.318;2023-01-01T11:04:42;129.97;;;59.97;;
6149;SDS011;3106;42.670;23.318;2023-01-01T11:07:12;128.53;;;59.50;;
6149;SDS011;3106;42.670;23.318;2023-01-01T11:09:46;124.17;;;58.90;;
6149;SDS011;3106;42.670;23.318;2023-01-01T11:12:18;126.37;;;59.90;;
6149;SDS011;3106;42.670;23.318;2023-01-01T11:14:50;137.10;;;59.83;;
6149;SDS011;3106;42.670;23.318;2023-01-01T11:17:19;143.17;;;57.47;;
6149;SDS011;3106;42.670;23.318;2023-01-01T11:19:47;116.97;;;56.53;;
6149;SDS011;3106;42.670;23.318;2023-01-01T11:22:33;128.97;;;59.70;;
6149;SDS011;3106;42.670;23.318;2023-01-01T11:25:03;119.67;;;55.73;;
6149;SDS011;3106;42.670;23.318;2023-01-01T11:27:51;115.77;;;54.77;;
6149;SDS011;3106;42.670;23.318;2023-01-01T11:30:38;122.97;;;57.00;;
6149;SDS011;3106;42.670;23.318;2023-01-01T11:33:05;110.20;;;52.50;;
6149;SDS011;3106;42.670;23.318;2023-01-01T11:35:35;119.07;;;53.17;;
6149;SDS011;3106;42.670;23.318;2023-01-01T11:38:14;120.27;;;52.93;;
6149;SDS011;3106;42.670;23.318;2023-01-01T11:40:44;108.17;;;53.20;;
6149;SDS011;3106;42.670;23.318;2023-01-01T11:45:44;113.63;;;54.33;;
6149;SDS011;3106;42.670;23.318;2023-01-01T11:48:13;104.90;;;49.00;;
6149;SDS011;3106;42.670;23.318;2023-01-01T11:50:47;105.73;;;49.07;;
6149;SDS011;3106;42.670;23.318;2023-01-01T11:53:17;101.73;;;45.07;;
6149;SDS011;3106;42.670;23.318;2023-01-01T11:55:51;96.93;;;44.07;;
6149;SDS011;3106;42.670;23.318;2023-01-01T11:58:22;92.13;;;45.63;;
6149;SDS011;3106;42.670;23.318;2023-01-01T12:00:57;102.50;;;45.00;;
6149;SDS011;3106;42.670;23.318;2023-01-01T12:03:28;95.87;;;44.03;;
6149;SDS011;3106;42.670;23.318;2023-01-01T12:05:59;89.23;;;44.53;;
6149;SDS011;3106;42.670;23.318;2023-01-01T12:08:34;89.10;;;42.07;;
6149;SDS011;3106;42.670;23.318;2023-01-01T12:11:06;85.97;;;41.20;;
6149;SDS011;3106;42.670;23.318;2023-01-01T12:13:44;95.00;;;44.93;;
6149;SDS011;3106;42.670;23.318;2023-01-01T12:16:19;81.87;;;40.90;;
6149;SDS011;3106;42.670;23.318;2023-01-01T12:18:53;79.53;;;39.03;;
6149;SDS011;3106;42.670;23.318;2023-01-01T12:21:26;78.83;;;39.30;;
6149;SDS011;3106;42.670;23.318;2023-01-01T12:23:56;76.20;;;38.17;;
6149;SDS011;3106;42.670;23.318;2023-01-01T12:26:23;77.87;;;39.00;;
6149;SDS011;3106;42.670;23.318;2023-01-01T12:29:06;79.97;;;40.90;;
6149;SDS011;3106;42.670;23.318;2023-01-01T12:31:55;80.13;;;39.40;;
6149;SDS011;3106;42.670;23.318;2023-01-01T12:34:28;79.00;;;36.50;;
6149;SDS011;3106;42.670;23.318;2023-01-01T12:37:02;74.40;;;35.50;;
6149;SDS011;3106;42.670;23.318;2023-01-01T12:42:42;86.53;;;37.97;;
6149;SDS011;3106;42.670;23.318;2023-01-01T12:48:21;74.07;;;36.43;;
6149;SDS011;3106;42.670;23.318;2023-01-01T12:51:11;81.73;;;36.97;;
6149;SDS011;3106;42.670;23.318;2023-01-01T12:53:52;75.60;;;38.80;;
6149;SDS011;3106;42.670;23.318;2023-01-01T12:56:29;80.47;;;37.47;;
6149;SDS011;3106;42.670;23.318;2023-01-01T12:59:04;87.47;;;37.57;;
6149;SDS011;3106;42.670;23.318;2023-01-01T13:01:36;75.93;;;36.27;;
6149;SDS011;3106;42.670;23.318;2023-01-01T13:04:08;71.77;;;36.30;;
6149;SDS011;3106;42.670;23.318;2023-01-01T13:06:37;79.13;;;37.10;;
6149;SDS011;3106;42.670;23.318;2023-01-01T13:09:10;79.87;;;36.63;;
6149;SDS011;3106;42.670;23.318;2023-01-01T13:11:39;86.27;;;37.73;;
6149;SDS011;3106;42.670;23.318;2023-01-01T13:14:08;76.27;;;37.27;;
6149;SDS011;3106;42.670;23.318;2023-01-01T13:16:35;73.93;;;37.30;;
6149;SDS011;3106;42.670;23.318;2023-01-01T13:19:11;65.87;;;34.73;;
6149;SDS011;3106;42.670;23.318;2023-01-01T13:21:50;67.87;;;35.20;;
6149;SDS011;3106;42.670;23.318;2023-01-01T13:24:18;78.43;;;36.33;;
6149;SDS011;3106;42.670;23.318;2023-01-01T13:26:47;70.40;;;35.60;;
6149;SDS011;3106;42.670;23.318;2023-01-01T13:32:10;67.13;;;35.00;;
6149;SDS011;3106;42.670;23.318;2023-01-01T13:37:52;65.10;;;33.47;;
6149;SDS011;3106;42.670;23.318;2023-01-01T13:43:27;59.20;;;31.30;;
6149;SDS011;3106;42.670;23.318;2023-01-01T13:45:55;64.63;;;30.93;;
6149;SDS011;3106;42.670;23.318;2023-01-01T13:51:41;61.13;;;30.77;;
6149;SDS011;3106;42.670;23.318;2023-01-01T13:54:24;66.20;;;30.10;;
6149;SDS011;3106;42.670;23.318;2023-01-01T13:57:06;59.70;;;30.80;;
6149;SDS011;3106;42.670;23.318;2023-01-01T13:59:47;65.20;;;30.80;;
6149;SDS011;3106;42.670;23.318;2023-01-01T14:02:21;63.80;;;31.90;;
6149;SDS011;3106;42.670;23.318;2023-01-01T14:04:53;67.67;;;32.83;;
6149;SDS011;3106;42.670;23.318;2023-01-01T14:07:28;66.57;;;30.27;;
6149;SDS011;3106;42.670;23.318;2023-01-01T14:12:49;64.67;;;30.23;;
6149;SDS011;3106;42.670;23.318;2023-01-01T14:15:22;59.70;;;30.57;;
6149;SDS011;3106;42.670;23.318;2023-01-01T14:18:01;70.50;;;31.10;;
6149;SDS011;3106;42.670;23.318;2023-01-01T14:20:32;66.37;;;28.40;;
6149;SDS011;3106;42.670;23.318;2023-01-01T14:23:04;67.00;;;29.60;;
6149;SDS011;3106;42.670;23.318;2023-01-01T14:25:34;61.17;;;30.03;;
6149;SDS011;3106;42.670;23.318;2023-01-01T14:28:01;63.53;;;30.17;;
6149;SDS011;3106;42.670;23.318;2023-01-01T14:30:29;66.60;;;30.70;;
6149;SDS011;3106;42.670;23.318;2023-01-01T14:32:58;56.37;;;29.60;;
6149;SDS011;3106;42.670;23.318;2023-01-01T14:35:28;57.87;;;29.10;;
6149;SDS011;3106;42.670;23.318;2023-01-01T14:37:56;56.43;;;29.30;;
6149;SDS011;3106;42.670;23.318;2023-01-01T14:40:50;66.03;;;29.47;;
6149;SDS011;3106;42.670;23.318;2023-01-01T14:43:25;67.40;;;30.20;;
6149;SDS011;3106;42.670;23.318;2023-01-01T14:45:52;63.93;;;30.97;;
6149;SDS011;3106;42.670;23.318;2023-01-01T14:48:20;72.33;;;31.10;;
6149;SDS011;3106;42.670;23.318;2023-01-01T14:50:48;65.33;;;28.20;;
6149;SDS011;3106;42.670;23.318;2023-01-01T14:53:18;64.93;;;30.27;;
6149;SDS011;3106;42.670;23.318;2023-01-01T14:55:50;62.37;;;30.07;;
6149;SDS011;3106;42.670;23.318;2023-01-01T14:58:17;64.47;;;29.70;;
6149;SDS011;3106;42.670;23.318;2023-01-01T15:00:47;56.23;;;28.23;;
6149;SDS011;3106;42.670;23.318;2023-01-01T15:03:15;60.70;;;28.47;;
6149;SDS011;3106;42.670;23.318;2023-01-01T15:05:44;60.70;;;27.97;;
6149;SDS011;3106;42.670;23.318;2023-01-01T15:08:22;65.90;;;30.10;;
6149;SDS011;3106;42.670;23.318;2023-01-01T15:10:52;63.70;;;30.80;;
6149;SDS011;3106;42.670;23.318;2023-01-01T15:13:21;71.40;;;32.30;;
6149;SDS011;3106;42.670;23.318;2023-01-01T15:15:51;60.70;;;28.67;;
6149;SDS011;3106;42.670;23.318;2023-01-01T15:18:34;66.60;;;30.87;;
6149;SDS011;3106;42.670;23.318;2023-01-01T15:21:08;63.33;;;31.00;;
6149;SDS011;3106;42.670;23.318;2023-01-01T15:23:50;67.60;;;30.70;;
6149;SDS011;3106;42.670;23.318;2023-01-01T15:26:27;64.20;;;28.73;;
6149;SDS011;3106;42.670;23.318;2023-01-01T15:28:56;58.57;;;29.77;;
6149;SDS011;3106;42.670;23.318;2023-01-01T15:31:32;65.43;;;29.00;;
6149;SDS011;3106;42.670;23.318;2023-01-01T15:34:01;58.23;;;28.10;;